sensor_id;sensor_type;location;lat;lon;timestamp;temperature;humidity
22682;DHT22;11508;50.856;4.380;2023-03-19T00:02:10;12.00;99.90
22682;DHT22;11508;50.856;4.380;2023-03-19T00:04:36;12.00;99.90
22682;DHT22;11508;50.856;4.380;2023-03-19T00:07:01;11.90;99.90
22682;DHT22;11508;50.856;4.380;2023-03-19T00:09:27;11.80;99.90
22682;DHT22;11508;50.856;4.380;2023-03-19T00:11:53;11.70;99.90
22682;DHT22;11508;50.856;4.380;2023-03-19T00:14:19;11.60;99.90
22682;DHT22;11508;50.856;4.380;2023-03-19T00:16:45;11.60;99.90
22682;DHT22;11508;50.856;4.380;2023-03-19T00:19:10;11.70;99.90
22682;DHT22;11508;50.856;4.380;2023-03-19T00:21:37;11.70;99.90
22682;DHT22;11508;50.856;4.380;2023-03-19T00:24:03;11.80;99.90
22682;DHT22;11508;50.856;4.380;2023-03-19T00:26:30;11.80;99.90
22682;DHT22;11508;50.856;4.380;2023-03-19T00:28:56;11.80;99.90
22682;DHT22;11508;50.856;4.380;2023-03-19T00:31:23;11.80;99.90
22682;DHT22;11508;50.856;4.380;2023-03-19T00:33:49;11.80;99.90
22682;DHT22;11508;50.856;4.380;2023-03-19T00:36:15;11.80;99.90
22682;DHT22;11508;50.856;4.380;2023-03-19T00:38:42;11.70;99.90
22682;DHT22;11508;50.856;4.380;2023-03-19T00:41:08;11.80;99.90
22682;DHT22;11508;50.856;4.380;2023-03-19T00:43:34;11.80;99.90
22682;DHT22;11508;50.856;4.380;2023-03-19T00:46:00;11.80;99.90
22682;DHT22;11508;50.856;4.380;2023-03-19T00:48:25;11.90;99.90
22682;DHT22;11508;50.856;4.380;2023-03-19T00:50:51;11.80;99.90
22682;DHT22;11508;50.856;4.380;2023-03-19T00:53:18;11.80;99.90
22682;DHT22;11508;50.856;4.380;2023-03-19T00:55:43;11.80;99.90
22682;DHT22;11508;50.856;4.380;2023-03-19T00:58:09;11.70;99.90
22682;DHT22;11508;50.856;4.380;2023-03-19T01:00:37;11.80;99.90
22682;DHT22;11508;50.856;4.380;2023-03-19T01:03:04;11.80;99.90
22682;DHT22;11508;50.856;4.380;2023-03-19T01:05:31;11.80;99.90
22682;DHT22;11508;50.856;4.380;2023-03-19T01:07:58;11.90;99.90
22682;DHT22;11508;50.856;4.380;2023-03-19T01:10:24;12.00;99.90
22682;DHT22;11508;50.856;4.380;2023-03-19T01:12:50;12.00;99.90
22682;DHT22;11508;50.856;4.380;2023-03-19T01:15:16;11.90;99.90
22682;DHT22;11508;50.856;4.380;2023-03-19T01:17:42;12.00;99.90
22682;DHT22;11508;50.856;4.380;2023-03-19T01:20:09;12.00;99.90
22682;DHT22;11508;50.856;4.380;2023-03-19T01:22:39;12.00;99.90
22682;DHT22;11508;50.856;4.380;2023-03-19T01:25:06;12.00;99.90
22682;DHT22;11508;50.856;4.380;2023-03-19T01:27:32;12.10;99.90
22682;DHT22;11508;50.856;4.380;2023-03-19T01:29:57;12.20;99.90
22682;DHT22;11508;50.856;4.380;2023-03-19T01:32:23;12.10;99.90
22682;DHT22;11508;50.856;4.380;2023-03-19T01:34:49;12.00;99.90
22682;DHT22;11508;50.856;4.380;2023-03-19T01:37:15;12.00;99.90
22682;DHT22;11508;50.856;4.380;2023-03-19T01:39:41;12.10;99.90
22682;DHT22;11508;50.856;4.380;2023-03-19T01:42:07;12.00;99.90
22682;DHT22;11508;50.856;4.380;2023-03-19T01:44:35;12.00;99.90
22682;DHT22;11508;50.856;4.380;2023-03-19T01:47:05;12.00;99.90
22682;DHT22;11508;50.856;4.380;2023-03-19T01:49:32;12.00;99.90
22682;DHT22;11508;50.856;4.380;2023-03-19T01:52:00;12.00;99.90
22682;DHT22;11508;50.856;4.380;2023-03-19T01:54:28;12.00;99.90
22682;DHT22;11508;50.856;4.380;2023-03-19T01:57:05;12.00;99.90
22682;DHT22;11508;50.856;4.380;2023-03-19T01:59:38;11.90;99.90
22682;DHT22;11508;50.856;4.380;2023-03-19T02:02:09;12.00;99.90
22682;DHT22;11508;50.856;4.380;2023-03-19T02:04:39;11.90;99.90
22682;DHT22;11508;50.856;4.380;2023-03-19T02:07:07;11.90;99.90
22682;DHT22;11508;50.856;4.380;2023-03-19T02:09:34;11.90;99.90
22682;DHT22;11508;50.856;4.380;2023-03-19T02:12:01;11.90;99.90
22682;DHT22;11508;50.856;4.380;2023-03-19T02:14:26;11.80;99.90
22682;DHT22;11508;50.856;4.380;2023-03-19T02:16:53;11.70;99.90
22682;DHT22;11508;50.856;4.380;2023-03-19T02:19:31;11.70;99.90
22682;DHT22;11508;50.856;4.380;2023-03-19T02:22:00;11.70;99.90
22682;DHT22;11508;50.856;4.380;2023-03-19T02:24:52;11.60;99.90
22682;DHT22;11508;50.856;4.380;2023-03-19T02:27:21;11.60;99.90
22682;DHT22;11508;50.856;4.380;2023-03-19T02:29:47;11.60;99.90
22682;DHT22;11508;50.856;4.380;2023-03-19T02:32:12;11.60;99.90
22682;DHT22;11508;50.856;4.380;2023-03-19T02:34:40;11.60;99.90
22682;DHT22;11508;50.856;4.380;2023-03-19T02:37:19;11.60;99.90
22682;DHT22;11508;50.856;4.380;2023-03-19T02:40:13;11.50;99.90
22682;DHT22;11508;50.856;4.380;2023-03-19T02:42:40;11.40;99.90
22682;DHT22;11508;50.856;4.380;2023-03-19T02:45:06;11.40;99.90
22682;DHT22;11508;50.856;4.380;2023-03-19T02:47:33;11.40;99.90
22682;DHT22;11508;50.856;4.380;2023-03-19T02:49:59;11.50;99.90
22682;DHT22;11508;50.856;4.380;2023-03-19T02:52:25;11.50;99.90
22682;DHT22;11508;50.856;4.380;2023-03-19T02:54:50;11.40;99.90
22682;DHT22;11508;50.856;4.380;2023-03-19T02:57:16;11.40;99.90
22682;DHT22;11508;50.856;4.380;2023-03-19T02:59:42;11.40;99.90
22682;DHT22;11508;50.856;4.380;2023-03-19T03:02:07;11.40;99.90
22682;DHT22;11508;50.856;4.380;2023-03-19T03:04:34;11.50;99.90
22682;DHT22;11508;50.856;4.380;2023-03-19T03:07:02;11.40;99.90
22682;DHT22;11508;50.856;4.380;2023-03-19T03:09:28;11.50;99.90
22682;DHT22;11508;50.856;4.380;2023-03-19T03:11:54;11.50;99.90
22682;DHT22;11508;50.856;4.380;2023-03-19T03:14:19;11.60;99.90
22682;DHT22;11508;50.856;4.380;2023-03-19T03:16:45;11.70;99.90
22682;DHT22;11508;50.856;4.380;2023-03-19T03:19:11;11.60;99.90
22682;DHT22;11508;50.856;4.380;2023-03-19T03:21:36;11.50;99.90
22682;DHT22;11508;50.856;4.380;2023-03-19T03:24:02;11.40;99.90
22682;DHT22;11508;50.856;4.380;2023-03-19T03:26:28;11.40;99.90
22682;DHT22;11508;50.856;4.380;2023-03-19T03:28:54;11.40;99.90
22682;DHT22;11508;50.856;4.380;2023-03-19T03:31:20;11.50;99.90
22682;DHT22;11508;50.856;4.380;2023-03-19T03:33:46;11.40;99.90
22682;DHT22;11508;50.856;4.380;2023-03-19T03:36:12;11.30;99.90
22682;DHT22;11508;50.856;4.380;2023-03-19T03:38:38;11.30;99.90
22682;DHT22;11508;50.856;4.380;2023-03-19T03:41:04;11.20;99.90
22682;DHT22;11508;50.856;4.380;2023-03-19T03:43:30;11.20;99.90
22682;DHT22;11508;50.856;4.380;2023-03-19T03:45:56;11.30;99.90
22682;DHT22;11508;50.856;4.380;2023-03-19T03:48:22;11.30;99.90
22682;DHT22;11508;50.856;4.380;2023-03-19T03:50:48;11.30;99.90
22682;DHT22;11508;50.856;4.380;2023-03-19T03:53:13;11.20;99.90
22682;DHT22;11508;50.856;4.380;2023-03-19T03:55:39;11.10;99.90
22682;DHT22;11508;50.856;4.380;2023-03-19T03:58:05;11.10;99.90
22682;DHT22;11508;50.856;4.380;2023-03-19T04:00:31;11.10;99.90
22682;DHT22;11508;50.856;4.380;2023-03-19T04:02:57;11.10;99.90
22682;DHT22;11508;50.856;4.380;2023-03-19T04:05:24;11.00;99.90
22682;DHT22;11508;50.856;4.380;2023-03-19T04:07:50;11.00;99.90
22682;DHT22;11508;50.856;4.380;2023-03-19T04:10:17;10.90;99.90
22682;DHT22;11508;50.856;4.380;2023-03-19T04:12:43;10.90;99.90
22682;DHT22;11508;50.856;4.380;2023-03-19T04:15:10;10.80;99.90
22682;DHT22;11508;50.856;4.380;2023-03-19T04:17:37;10.80;99.90
22682;DHT22;11508;50.856;4.380;2023-03-19T04:20:03;10.80;99.90
22682;DHT22;11508;50.856;4.380;2023-03-19T04:22:30;10.80;99.90
22682;DHT22;11508;50.856;4.380;2023-03-19T04:24:57;10.70;99.90
22682;DHT22;11508;50.856;4.380;2023-03-19T04:27:26;10.70;99.90
22682;DHT22;11508;50.856;4.380;2023-03-19T04:29:51;10.60;99.90
22682;DHT22;11508;50.856;4.380;2023-03-19T04:32:17;10.60;99.90
22682;DHT22;11508;50.856;4.380;2023-03-19T04:34:43;10.60;99.90
22682;DHT22;11508;50.856;4.380;2023-03-19T04:37:09;10.60;99.90
22682;DHT22;11508;50.856;4.380;2023-03-19T04:39:35;10.60;99.90
22682;DHT22;11508;50.856;4.380;2023-03-19T04:42:01;10.60;99.90
22682;DHT22;11508;50.856;4.380;2023-03-19T04:44:28;10.60;99.90
22682;DHT22;11508;50.856;4.380;2023-03-19T04:46:54;10.50;99.90
22682;DHT22;11508;50.856;4.380;2023-03-19T04:49:19;10.50;99.90
22682;DHT22;11508;50.856;4.380;2023-03-19T04:51:45;10.50;99.90
22682;DHT22;11508;50.856;4.380;2023-03-19T04:54:11;10.40;99.90
22682;DHT22;11508;50.856;4.380;2023-03-19T04:56:36;10.50;99.90
22682;DHT22;11508;50.856;4.380;2023-03-19T04:59:02;10.40;99.90
22682;DHT22;11508;50.856;4.380;2023-03-19T05:01:28;10.40;99.90
22682;DHT22;11508;50.856;4.380;2023-03-19T05:03:54;10.50;99.90
22682;DHT22;11508;50.856;4.380;2023-03-19T05:06:19;10.40;99.90
22682;DHT22;11508;50.856;4.380;2023-03-19T05:08:45;10.40;99.90
22682;DHT22;11508;50.856;4.380;2023-03-19T05:11:12;10.40;99.90
22682;DHT22;11508;50.856;4.380;2023-03-19T05:13:39;10.40;99.90
22682;DHT22;11508;50.856;4.380;2023-03-19T05:16:05;10.40;99.90
22682;DHT22;11508;50.856;4.380;2023-03-19T05:18:31;10.40;99.90
22682;DHT22;11508;50.856;4.380;2023-03-19T05:20:57;10.40;99.90
22682;DHT22;11508;50.856;4.380;2023-03-19T05:23:23;10.40;99.90
22682;DHT22;11508;50.856;4.380;2023-03-19T05:25:49;10.50;99.90
22682;DHT22;11508;50.856;4.380;2023-03-19T05:28:15;10.50;99.90
22682;DHT22;11508;50.856;4.380;2023-03-19T05:30:41;10.40;99.90
22682;DHT22;11508;50.856;4.380;2023-03-19T05:33:08;10.40;99.90
22682;DHT22;11508;50.856;4.380;2023-03-19T05:35:34;10.30;99.90
22682;DHT22;11508;50.856;4.380;2023-03-19T05:37:59;10.30;99.90
22682;DHT22;11508;50.856;4.380;2023-03-19T05:40:25;10.30;99.90
22682;DHT22;11508;50.856;4.380;2023-03-19T05:42:51;10.20;99.90
22682;DHT22;11508;50.856;4.380;2023-03-19T05:45:16;10.30;99.90
22682;DHT22;11508;50.856;4.380;2023-03-19T05:47:42;10.30;99.90
22682;DHT22;11508;50.856;4.380;2023-03-19T05:50:10;10.30;99.90
22682;DHT22;11508;50.856;4.380;2023-03-19T05:52:36;10.30;99.90
22682;DHT22;11508;50.856;4.380;2023-03-19T05:55:02;10.20;99.90
22682;DHT22;11508;50.856;4.380;2023-03-19T05:57:29;10.20;99.90
22682;DHT22;11508;50.856;4.380;2023-03-19T05:59:55;10.30;99.90
22682;DHT22;11508;50.856;4.380;2023-03-19T06:02:20;10.40;99.90
22682;DHT22;11508;50.856;4.380;2023-03-19T06:04:46;10.30;99.90
22682;DHT22;11508;50.856;4.380;2023-03-19T06:07:12;10.30;99.90
22682;DHT22;11508;50.856;4.380;2023-03-19T06:09:37;10.30;99.90
22682;DHT22;11508;50.856;4.380;2023-03-19T06:12:03;10.30;99.90
22682;DHT22;11508;50.856;4.380;2023-03-19T06:14:29;10.30;99.90
22682;DHT22;11508;50.856;4.380;2023-03-19T06:16:55;10.20;99.90
22682;DHT22;11508;50.856;4.380;2023-03-19T06:19:21;10.20;99.90
22682;DHT22;11508;50.856;4.380;2023-03-19T06:21:47;10.20;99.90
22682;DHT22;11508;50.856;4.380;2023-03-19T06:24:12;10.30;99.90
22682;DHT22;11508;50.856;4.380;2023-03-19T06:26:38;10.30;99.90
22682;DHT22;11508;50.856;4.380;2023-03-19T06:29:04;10.30;99.90
22682;DHT22;11508;50.856;4.380;2023-03-19T06:31:30;10.30;99.90
22682;DHT22;11508;50.856;4.380;2023-03-19T06:33:56;10.30;99.90
22682;DHT22;11508;50.856;4.380;2023-03-19T06:36:21;10.30;99.90
22682;DHT22;11508;50.856;4.380;2023-03-19T06:38:47;10.30;99.90
22682;DHT22;11508;50.856;4.380;2023-03-19T06:41:13;10.30;99.90
22682;DHT22;11508;50.856;4.380;2023-03-19T06:43:38;10.30;99.90
22682;DHT22;11508;50.856;4.380;2023-03-19T06:46:06;10.10;99.90
22682;DHT22;11508;50.856;4.380;2023-03-19T06:48:33;10.10;99.90
22682;DHT22;11508;50.856;4.380;2023-03-19T06:50:59;10.10;99.90
22682;DHT22;11508;50.856;4.380;2023-03-19T06:53:26;10.00;99.90
22682;DHT22;11508;50.856;4.380;2023-03-19T06:55:52;10.00;99.90
22682;DHT22;11508;50.856;4.380;2023-03-19T06:58:17;10.00;99.90
22682;DHT22;11508;50.856;4.380;2023-03-19T07:00:43;10.00;99.90
22682;DHT22;11508;50.856;4.380;2023-03-19T07:03:09;10.10;99.90
22682;DHT22;11508;50.856;4.380;2023-03-19T07:05:35;10.00;99.90
22682;DHT22;11508;50.856;4.380;2023-03-19T07:08:01;10.10;99.90
22682;DHT22;11508;50.856;4.380;2023-03-19T07:10:27;10.20;99.90
22682;DHT22;11508;50.856;4.380;2023-03-19T07:12:52;10.20;99.90
22682;DHT22;11508;50.856;4.380;2023-03-19T07:15:18;10.20;99.90
22682;DHT22;11508;50.856;4.380;2023-03-19T07:17:46;10.30;99.90
22682;DHT22;11508;50.856;4.380;2023-03-19T07:20:13;10.20;99.90
22682;DHT22;11508;50.856;4.380;2023-03-19T07:22:39;10.40;99.90
22682;DHT22;11508;50.856;4.380;2023-03-19T07:25:05;10.40;99.90
22682;DHT22;11508;50.856;4.380;2023-03-19T07:27:31;10.40;99.90
22682;DHT22;11508;50.856;4.380;2023-03-19T07:29:56;10.70;99.90
22682;DHT22;11508;50.856;4.380;2023-03-19T07:32:22;10.70;99.90
22682;DHT22;11508;50.856;4.380;2023-03-19T07:34:48;10.70;95.90
22682;DHT22;11508;50.856;4.380;2023-03-19T07:37:14;10.50;99.90
22682;DHT22;11508;50.856;4.380;2023-03-19T07:39:40;10.50;99.90
22682;DHT22;11508;50.856;4.380;2023-03-19T07:42:06;10.70;99.90
22682;DHT22;11508;50.856;4.380;2023-03-19T07:44:32;10.70;97.50
22682;DHT22;11508;50.856;4.380;2023-03-19T07:46:57;10.70;99.80
22682;DHT22;11508;50.856;4.380;2023-03-19T07:49:23;10.70;96.90
22682;DHT22;11508;50.856;4.380;2023-03-19T07:51:50;10.70;94.80
22682;DHT22;11508;50.856;4.380;2023-03-19T07:54:16;10.60;94.10
22682;DHT22;11508;50.856;4.380;2023-03-19T07:56:42;10.60;97.30
22682;DHT22;11508;50.856;4.380;2023-03-19T07:59:08;10.70;97.50
22682;DHT22;11508;50.856;4.380;2023-03-19T08:01:34;10.80;93.90
22682;DHT22;11508;50.856;4.380;2023-03-19T08:03:59;10.90;88.40
22682;DHT22;11508;50.856;4.380;2023-03-19T08:06:25;10.90;84.20
22682;DHT22;11508;50.856;4.380;2023-03-19T08:08:51;11.00;73.70
22682;DHT22;11508;50.856;4.380;2023-03-19T08:11:16;11.00;59.10
22682;DHT22;11508;50.856;4.380;2023-03-19T08:13:42;11.00;57.10
22682;DHT22;11508;50.856;4.380;2023-03-19T08:16:08;11.10;60.10
22682;DHT22;11508;50.856;4.380;2023-03-19T08:18:34;11.20;61.60
22682;DHT22;11508;50.856;4.380;2023-03-19T08:21:01;11.20;51.00
22682;DHT22;11508;50.856;4.380;2023-03-19T08:23:27;11.30;52.50
22682;DHT22;11508;50.856;4.380;2023-03-19T08:25:52;11.30;49.20
22682;DHT22;11508;50.856;4.380;2023-03-19T08:28:20;11.30;45.90
22682;DHT22;11508;50.856;4.380;2023-03-19T08:30:46;11.40;42.40
22682;DHT22;11508;50.856;4.380;2023-03-19T08:33:12;11.40;38.00
22682;DHT22;11508;50.856;4.380;2023-03-19T08:35:37;11.50;32.60
22682;DHT22;11508;50.856;4.380;2023-03-19T08:38:03;11.30;46.40
22682;DHT22;11508;50.856;4.380;2023-03-19T08:40:29;11.50;39.90
22682;DHT22;11508;50.856;4.380;2023-03-19T08:42:55;11.60;38.70
22682;DHT22;11508;50.856;4.380;2023-03-19T08:45:22;11.70;28.90
22682;DHT22;11508;50.856;4.380;2023-03-19T08:47:48;11.90;26.40
22682;DHT22;11508;50.856;4.380;2023-03-19T08:50:14;12.10;12.80
22682;DHT22;11508;50.856;4.380;2023-03-19T08:52:40;12.30;9.20
22682;DHT22;11508;50.856;4.380;2023-03-19T08:55:06;12.60;2.20
22682;DHT22;11508;50.856;4.380;2023-03-19T08:57:33;12.80;1.00
22682;DHT22;11508;50.856;4.380;2023-03-19T08:59:58;13.00;1.00
22682;DHT22;11508;50.856;4.380;2023-03-19T09:02:24;12.70;1.00
22682;DHT22;11508;50.856;4.380;2023-03-19T09:04:50;12.50;1.00
22682;DHT22;11508;50.856;4.380;2023-03-19T09:07:16;12.80;1.00
22682;DHT22;11508;50.856;4.380;2023-03-19T09:09:42;13.20;1.00
22682;DHT22;11508;50.856;4.380;2023-03-19T09:12:10;13.80;1.00
22682;DHT22;11508;50.856;4.380;2023-03-19T09:14:36;13.80;1.00
22682;DHT22;11508;50.856;4.380;2023-03-19T09:17:03;13.80;1.00
22682;DHT22;11508;50.856;4.380;2023-03-19T09:19:29;13.70;1.00
22682;DHT22;11508;50.856;4.380;2023-03-19T09:21:54;13.90;1.00
22682;DHT22;11508;50.856;4.380;2023-03-19T09:24:20;13.50;1.00
22682;DHT22;11508;50.856;4.380;2023-03-19T09:26:46;13.40;1.00
22682;DHT22;11508;50.856;4.380;2023-03-19T09:29:12;12.90;1.00
22682;DHT22;11508;50.856;4.380;2023-03-19T09:31:38;12.80;1.00
22682;DHT22;11508;50.856;4.380;2023-03-19T09:34:04;12.80;1.00
22682;DHT22;11508;50.856;4.380;2023-03-19T09:36:31;12.80;1.00
22682;DHT22;11508;50.856;4.380;2023-03-19T09:38:57;12.90;1.00
22682;DHT22;11508;50.856;4.380;2023-03-19T09:41:56;13.00;1.00
22682;DHT22;11508;50.856;4.380;2023-03-19T09:44:36;13.00;1.00
22682;DHT22;11508;50.856;4.380;2023-03-19T09:50:00;12.80;1.00
22682;DHT22;11508;50.856;4.380;2023-03-19T09:53:00;12.80;1.00
22682;DHT22;11508;50.856;4.380;2023-03-19T09:55:30;12.90;1.00
22682;DHT22;11508;50.856;4.380;2023-03-19T09:58:00;12.80;1.00
22682;DHT22;11508;50.856;4.380;2023-03-19T10:00:35;13.20;1.00
22682;DHT22;11508;50.856;4.380;2023-03-19T10:11:59;13.40;1.00
22682;DHT22;11508;50.856;4.380;2023-03-19T10:17:06;13.10;1.00
22682;DHT22;11508;50.856;4.380;2023-03-19T10:20:24;13.40;1.00
22682;DHT22;11508;50.856;4.380;2023-03-19T10:22:50;13.50;1.00
22682;DHT22;11508;50.856;4.380;2023-03-19T10:25:22;13.40;1.00
22682;DHT22;11508;50.856;4.380;2023-03-19T10:27:58;13.80;1.00
22682;DHT22;11508;50.856;4.380;2023-03-19T10:30:25;14.20;1.00
22682;DHT22;11508;50.856;4.380;2023-03-19T10:33:21;14.00;99.90
22682;DHT22;11508;50.856;4.380;2023-03-19T10:36:24;13.80;99.90
22682;DHT22;11508;50.856;4.380;2023-03-19T10:38:43;13.60;1.00
22682;DHT22;11508;50.856;4.380;2023-03-19T10:44:07;13.90;99.90
22682;DHT22;11508;50.856;4.380;2023-03-19T10:46:40;13.70;99.90
22682;DHT22;11508;50.856;4.380;2023-03-19T10:49:11;13.90;99.90
22682;DHT22;11508;50.856;4.380;2023-03-19T10:51:37;13.90;99.90
22682;DHT22;11508;50.856;4.380;2023-03-19T10:54:25;13.90;99.90
22682;DHT22;11508;50.856;4.380;2023-03-19T10:56:54;14.00;99.90
22682;DHT22;11508;50.856;4.380;2023-03-19T10:59:31;14.00;99.90
22682;DHT22;11508;50.856;4.380;2023-03-19T11:02:19;13.80;99.90
22682;DHT22;11508;50.856;4.380;2023-03-19T11:04:45;13.60;99.90
22682;DHT22;11508;50.856;4.380;2023-03-19T11:07:18;13.40;1.00
22682;DHT22;11508;50.856;4.380;2023-03-19T11:09:48;13.20;1.00
22682;DHT22;11508;50.856;4.380;2023-03-19T11:12:18;13.10;1.00
22682;DHT22;11508;50.856;4.380;2023-03-19T11:14:50;12.90;1.00
22682;DHT22;11508;50.856;4.380;2023-03-19T11:24:55;12.30;8.80
22682;DHT22;11508;50.856;4.380;2023-03-19T11:27:28;12.20;25.90
22682;DHT22;11508;50.856;4.380;2023-03-19T11:29:55;12.00;41.60
22682;DHT22;11508;50.856;4.380;2023-03-19T11:47:57;13.30;1.00
22682;DHT22;11508;50.856;4.380;2023-03-19T11:50:26;13.50;1.00
22682;DHT22;11508;50.856;4.380;2023-03-19T11:55:50;13.80;1.00
22682;DHT22;11508;50.856;4.380;2023-03-19T12:00:55;14.10;1.00
22682;DHT22;11508;50.856;4.380;2023-03-19T12:06:35;13.80;1.00
22682;DHT22;11508;50.856;4.380;2023-03-19T12:09:22;13.50;1.00
22682;DHT22;11508;50.856;4.380;2023-03-19T12:11:53;13.30;1.00
22682;DHT22;11508;50.856;4.380;2023-03-19T12:17:37;13.10;1.00
22682;DHT22;11508;50.856;4.380;2023-03-19T12:23:06;12.90;1.00
22682;DHT22;11508;50.856;4.380;2023-03-19T12:25:57;13.00;1.00
22682;DHT22;11508;50.856;4.380;2023-03-19T12:31:35;13.70;1.00
22682;DHT22;11508;50.856;4.380;2023-03-19T12:34:21;13.50;1.00
22682;DHT22;11508;50.856;4.380;2023-03-19T12:37:12;13.40;1.00
22682;DHT22;11508;50.856;4.380;2023-03-19T12:42:35;13.40;1.00
22682;DHT22;11508;50.856;4.380;2023-03-19T12:45:02;14.30;1.00
22682;DHT22;11508;50.856;4.380;2023-03-19T12:47:35;15.50;1.00
22682;DHT22;11508;50.856;4.380;2023-03-19T12:50:10;15.90;99.90
22682;DHT22;11508;50.856;4.380;2023-03-19T12:52:49;14.90;99.90
22682;DHT22;11508;50.856;4.380;2023-03-19T12:55:21;14.00;1.00
22682;DHT22;11508;50.856;4.380;2023-03-19T12:57:57;13.80;99.90
22682;DHT22;11508;50.856;4.380;2023-03-19T13:00:47;14.00;99.90
22682;DHT22;11508;50.856;4.380;2023-03-19T13:09:04;14.50;99.90
22682;DHT22;11508;50.856;4.380;2023-03-19T13:11:52;14.80;99.90
22682;DHT22;11508;50.856;4.380;2023-03-19T13:14:39;14.50;99.90
22682;DHT22;11508;50.856;4.380;2023-03-19T13:19:48;13.90;99.30
22682;DHT22;11508;50.856;4.380;2023-03-19T13:22:25;13.70;99.90
22682;DHT22;11508;50.856;4.380;2023-03-19T13:24:52;13.50;1.00
22682;DHT22;11508;50.856;4.380;2023-03-19T13:27:21;13.40;1.00
22682;DHT22;11508;50.856;4.380;2023-03-19T13:29:59;13.30;1.00
22682;DHT22;11508;50.856;4.380;2023-03-19T13:32:48;13.30;1.00
22682;DHT22;11508;50.856;4.380;2023-03-19T13:37:43;13.20;1.00
22682;DHT22;11508;50.856;4.380;2023-03-19T13:40:49;13.00;1.00
22682;DHT22;11508;50.856;4.380;2023-03-19T13:59:27;15.10;44.80
22682;DHT22;11508;50.856;4.380;2023-03-19T14:01:54;14.60;1.00
22682;DHT22;11508;50.856;4.380;2023-03-19T14:04:27;14.70;99.90
22682;DHT22;11508;50.856;4.380;2023-03-19T14:07:09;14.50;99.90
22682;DHT22;11508;50.856;4.380;2023-03-19T14:20:21;13.70;68.20
22682;DHT22;11508;50.856;4.380;2023-03-19T14:26:17;13.80;1.00
22682;DHT22;11508;50.856;4.380;2023-03-19T14:31:34;13.40;87.80
22682;DHT22;11508;50.856;4.380;2023-03-19T14:34:18;13.20;99.90
22682;DHT22;11508;50.856;4.380;2023-03-19T14:39:29;13.10;99.90
22682;DHT22;11508;50.856;4.380;2023-03-19T14:42:18;13.40;99.90
22682;DHT22;11508;50.856;4.380;2023-03-19T14:44:55;13.40;1.00
22682;DHT22;11508;50.856;4.380;2023-03-19T14:56:23;13.10;1.00
22682;DHT22;11508;50.856;4.380;2023-03-19T14:58:54;13.00;99.90
22682;DHT22;11508;50.856;4.380;2023-03-19T15:01:23;13.00;99.90
22682;DHT22;11508;50.856;4.380;2023-03-19T15:03:59;13.20;58.00
22682;DHT22;11508;50.856;4.380;2023-03-19T15:06:53;13.40;1.00
22682;DHT22;11508;50.856;4.380;2023-03-19T15:09:28;13.20;99.90
22682;DHT22;11508;50.856;4.380;2023-03-19T15:17:46;13.00;48.60
22682;DHT22;11508;50.856;4.380;2023-03-19T15:20:21;12.60;99.90
22682;DHT22;11508;50.856;4.380;2023-03-19T15:22:58;11.90;1.00
22682;DHT22;11508;50.856;4.380;2023-03-19T15:25:24;12.00;1.00
22682;DHT22;11508;50.856;4.380;2023-03-19T15:28:10;12.10;1.00
22682;DHT22;11508;50.856;4.380;2023-03-19T15:30:37;12.10;1.00
22682;DHT22;11508;50.856;4.380;2023-03-19T15:33:06;12.50;1.00
22682;DHT22;11508;50.856;4.380;2023-03-19T15:35:41;12.30;1.00
22682;DHT22;11508;50.856;4.380;2023-03-19T15:38:09;12.40;99.90
22682;DHT22;11508;50.856;4.380;2023-03-19T15:40:37;12.40;99.90
22682;DHT22;11508;50.856;4.380;2023-03-19T15:43:03;12.30;99.90
22682;DHT22;11508;50.856;4.380;2023-03-19T15:45:31;11.90;1.00
22682;DHT22;11508;50.856;4.380;2023-03-19T15:48:33;12.10;1.00
22682;DHT22;11508;50.856;4.380;2023-03-19T15:51:04;12.20;99.90
22682;DHT22;11508;50.856;4.380;2023-03-19T15:53:33;12.10;99.90
22682;DHT22;11508;50.856;4.380;2023-03-19T15:56:01;12.20;99.90
22682;DHT22;11508;50.856;4.380;2023-03-19T15:58:36;12.40;99.90
22682;DHT22;11508;50.856;4.380;2023-03-19T16:01:06;12.20;99.90
22682;DHT22;11508;50.856;4.380;2023-03-19T16:03:39;12.60;99.90
22682;DHT22;11508;50.856;4.380;2023-03-19T16:06:28;12.30;99.90
22682;DHT22;11508;50.856;4.380;2023-03-19T16:08:53;11.90;1.00
22682;DHT22;11508;50.856;4.380;2023-03-19T16:11:37;11.80;1.00
22682;DHT22;11508;50.856;4.380;2023-03-19T16:14:09;11.90;1.00
22682;DHT22;11508;50.856;4.380;2023-03-19T16:16:36;12.00;1.00
22682;DHT22;11508;50.856;4.380;2023-03-19T16:19:03;11.80;1.00
22682;DHT22;11508;50.856;4.380;2023-03-19T16:21:38;11.20;1.00
22682;DHT22;11508;50.856;4.380;2023-03-19T16:26:39;11.20;1.00
22682;DHT22;11508;50.856;4.380;2023-03-19T16:29:24;11.20;1.00
22682;DHT22;11508;50.856;4.380;2023-03-19T16:32:02;11.20;1.00
22682;DHT22;11508;50.856;4.380;2023-03-19T16:34:41;10.90;1.00
22682;DHT22;11508;50.856;4.380;2023-03-19T16:37:39;10.90;1.80
22682;DHT22;11508;50.856;4.380;2023-03-19T16:42:48;11.00;1.00
22682;DHT22;11508;50.856;4.380;2023-03-19T16:45:24;11.00;1.00
22682;DHT22;11508;50.856;4.380;2023-03-19T16:47:52;10.90;1.00
22682;DHT22;11508;50.856;4.380;2023-03-19T16:50:21;10.70;1.00
22682;DHT22;11508;50.856;4.380;2023-03-19T16:52:47;10.70;1.00
22682;DHT22;11508;50.856;4.380;2023-03-19T16:55:22;10.70;1.00
22682;DHT22;11508;50.856;4.380;2023-03-19T16:57:55;10.60;1.00
22682;DHT22;11508;50.856;4.380;2023-03-19T17:00:22;10.80;1.00
22682;DHT22;11508;50.856;4.380;2023-03-19T17:02:49;11.10;1.00
22682;DHT22;11508;50.856;4.380;2023-03-19T17:05:15;11.30;1.00
22682;DHT22;11508;50.856;4.380;2023-03-19T17:07:41;11.30;1.00
22682;DHT22;11508;50.856;4.380;2023-03-19T17:10:18;11.20;1.00
22682;DHT22;11508;50.856;4.380;2023-03-19T17:12:48;11.30;1.00
22682;DHT22;11508;50.856;4.380;2023-03-19T17:17:50;11.00;1.00
22682;DHT22;11508;50.856;4.380;2023-03-19T17:20:19;10.80;1.00
22682;DHT22;11508;50.856;4.380;2023-03-19T17:22:46;11.10;1.00
22682;DHT22;11508;50.856;4.380;2023-03-19T17:25:13;11.00;1.00
22682;DHT22;11508;50.856;4.380;2023-03-19T17:27:40;10.90;1.00
22682;DHT22;11508;50.856;4.380;2023-03-19T17:30:06;10.70;1.00
22682;DHT22;11508;50.856;4.380;2023-03-19T17:32:32;10.70;1.00
22682;DHT22;11508;50.856;4.380;2023-03-19T17:34:57;10.60;1.00
22682;DHT22;11508;50.856;4.380;2023-03-19T17:37:24;10.50;1.00
22682;DHT22;11508;50.856;4.380;2023-03-19T17:39:51;10.50;1.00
22682;DHT22;11508;50.856;4.380;2023-03-19T17:42:20;10.50;1.00
22682;DHT22;11508;50.856;4.380;2023-03-19T17:44:46;10.40;1.00
22682;DHT22;11508;50.856;4.380;2023-03-19T17:47:12;10.40;1.00
22682;DHT22;11508;50.856;4.380;2023-03-19T17:49:38;10.50;1.00
22682;DHT22;11508;50.856;4.380;2023-03-19T17:52:15;10.70;1.00
22682;DHT22;11508;50.856;4.380;2023-03-19T17:54:41;10.60;1.00
22682;DHT22;11508;50.856;4.380;2023-03-19T17:57:13;10.60;1.00
22682;DHT22;11508;50.856;4.380;2023-03-19T17:59:39;10.60;1.00